createdAt,value
2023-09-08T00:04:15.497Z,100.00
2023-09-08T00:09:17.687Z,100.00
2023-09-08T00:14:19.467Z,100.00
2023-09-08T00:19:21.852Z,100.00
2023-09-08T00:24:23.840Z,100.00
2023-09-08T00:29:25.773Z,100.00
2023-09-08T00:34:27.788Z,100.00
2023-09-08T00:39:29.769Z,100.00
2023-09-08T00:44:31.749Z,100.00
2023-09-08T00:49:33.930Z,100.00
2023-09-08T00:54:36.326Z,100.00
2023-09-08T00:59:38.811Z,100.00
2023-09-08T01:04:42.701Z,100.00
2023-09-08T01:09:46.438Z,100.00
2023-09-08T01:14:48.468Z,100.00
2023-09-08T01:19:55.742Z,100.00
2023-09-08T01:25:13.117Z,100.00
2023-09-08T01:30:16.094Z,100.00
2023-09-08T01:35:18.368Z,100.00
2023-09-08T01:40:20.353Z,100.00
2023-09-08T01:45:22.284Z,100.00
2023-09-08T01:50:25.548Z,100.00
2023-09-08T01:55:27.728Z,100.00
2023-09-08T02:00:29.609Z,100.00
2023-09-08T02:05:32.033Z,100.00
2023-09-08T02:10:34.022Z,100.00
2023-09-08T02:15:37.618Z,100.00
2023-09-08T02:20:39.670Z,100.00
2023-09-08T02:25:41.541Z,100.00
2023-09-08T02:30:43.620Z,100.00
2023-09-08T02:35:45.546Z,100.00
2023-09-08T02:40:47.482Z,100.00
2023-09-08T02:45:49.465Z,100.00
2023-09-08T02:50:51.441Z,100.00
2023-09-08T02:55:53.833Z,100.00
2023-09-08T03:00:56.017Z,100.00
2023-09-08T03:06:01.165Z,100.00
2023-09-08T03:11:05.077Z,100.00
2023-09-08T03:16:08.983Z,100.00
2023-09-08T03:21:14.271Z,100.00
2023-09-08T03:26:16.257Z,100.00
2023-09-08T03:31:18.931Z,100.00
2023-09-08T03:36:21.068Z,100.00
2023-09-08T03:41:22.912Z,100.00
2023-09-08T03:46:26.065Z,100.00
2023-09-08T03:51:29.016Z,100.00
2023-09-08T03:56:31.479Z,100.00
2023-09-08T04:01:33.618Z,100.00
2023-09-08T04:06:35.469Z,100.00
2023-09-08T04:11:37.451Z,100.00
2023-09-08T04:16:39.316Z,100.00
2023-09-08T04:21:42.123Z,100.00
2023-09-08T04:26:43.896Z,100.00
2023-09-08T04:31:45.707Z,100.00
2023-09-08T04:36:47.978Z,100.00
2023-09-08T04:41:49.940Z,100.00
2023-09-08T04:46:52.974Z,100.00
2023-09-08T04:51:54.714Z,100.00
2023-09-08T04:57:04.045Z,100.00
2023-09-08T05:02:14.145Z,100.00
2023-09-08T05:07:16.640Z,100.00
2023-09-08T05:12:18.507Z,100.00
2023-09-08T05:17:20.386Z,100.00
2023-09-08T05:22:22.624Z,100.00
2023-09-08T05:27:25.005Z,97.46
2023-09-08T05:32:27.003Z,87.76
2023-09-08T05:37:29.020Z,79.89
2023-09-08T05:42:31.304Z,73.59
2023-09-08T05:47:33.425Z,70.07
2023-09-08T05:52:35.419Z,64.86
2023-09-08T05:57:37.860Z,62.44
2023-09-08T06:02:40.180Z,59.22
2023-09-08T06:07:50.934Z,56.32
2023-09-08T06:12:59.359Z,55.07
2023-09-08T06:18:01.116Z,53.49
2023-09-08T06:23:03.424Z,51.09
2023-09-08T06:28:05.910Z,49.17
2023-09-08T06:33:09.281Z,48.18
2023-09-08T06:38:11.618Z,45.41
2023-09-08T06:43:13.592Z,43.71
2023-09-08T06:48:16.441Z,42.69
2023-09-08T06:53:18.677Z,41.67
2023-09-08T06:58:20.865Z,40.21
2023-09-08T07:03:23.789Z,38.85
2023-09-08T07:08:26.049Z,37.17
2023-09-08T07:13:28.117Z,35.06
2023-09-08T07:18:33.471Z,33.00
2023-09-08T07:23:37.517Z,32.39
2023-09-08T07:28:40.214Z,31.72
2023-09-08T07:33:42.293Z,31.31
2023-09-08T07:38:44.277Z,29.43
2023-09-08T07:43:46.357Z,29.31
2023-09-08T07:48:48.444Z,28.27
2023-09-08T07:53:50.356Z,27.09
2023-09-08T07:58:53.017Z,26.89
2023-09-08T08:03:54.968Z,26.36
2023-09-08T08:08:57.116Z,26.07
2023-09-08T08:13:59.050Z,26.12
2023-09-08T08:19:01.170Z,25.34
2023-09-08T08:24:03.705Z,24.81
2023-09-08T08:29:05.723Z,24.39
2023-09-08T08:34:09.655Z,24.56
2023-09-08T08:39:11.715Z,24.46
2023-09-08T08:44:16.253Z,23.52
2023-09-08T08:49:20.289Z,23.92
2023-09-08T08:54:22.629Z,24.28
2023-09-08T08:59:25.059Z,23.41
2023-09-08T09:04:27.876Z,23.65
2023-09-08T09:09:29.778Z,23.42
2023-09-08T09:14:35.673Z,23.22
2023-09-08T09:19:37.992Z,22.49
2023-09-08T09:24:43.988Z,22.11
2023-09-08T09:29:50.866Z,21.55
2023-09-08T09:34:54.288Z,21.36
2023-09-08T09:39:56.341Z,20.67
2023-09-08T09:45:01.028Z,20.34
2023-09-08T09:50:03.596Z,20.94
2023-09-08T09:55:06.289Z,21.81
2023-09-08T10:00:09.848Z,22.36
2023-09-08T10:05:15.371Z,21.96
2023-09-08T10:10:18.681Z,22.31
2023-09-08T10:15:23.639Z,23.60
2023-09-08T10:20:27.083Z,26.13
2023-09-08T10:25:32.402Z,28.30
2023-09-08T10:30:35.093Z,30.62
2023-09-08T10:35:37.180Z,32.99
2023-09-08T10:40:40.194Z,35.81
2023-09-08T10:45:43.006Z,36.70
2023-09-08T10:50:45.265Z,38.68
2023-09-08T10:55:56.808Z,39.89
2023-09-08T11:01:13.185Z,41.63
2023-09-08T11:06:18.983Z,42.77
2023-09-08T11:11:21.224Z,43.39
2023-09-08T11:16:30.108Z,44.48
2023-09-08T11:21:37.038Z,44.43
2023-09-08T11:26:39.162Z,45.19
2023-09-08T11:31:42.589Z,45.67
2023-09-08T11:36:44.477Z,45.00
2023-09-08T11:41:46.355Z,45.36
2023-09-08T11:46:50.138Z,46.14
2023-09-08T11:51:52.061Z,46.06
2023-09-08T11:56:54.837Z,46.35
2023-09-08T12:01:57.918Z,46.64
2023-09-08T12:07:00.345Z,47.06
2023-09-08T12:12:04.036Z,47.37
2023-09-08T12:17:09.685Z,48.05
2023-09-08T12:22:13.484Z,47.89
2023-09-08T12:27:17.507Z,47.98
2023-09-08T12:32:20.931Z,47.78
2023-09-08T12:37:24.381Z,47.03
2023-09-08T12:42:26.984Z,47.11
2023-09-08T12:47:29.589Z,47.30
2023-09-08T12:52:32.621Z,46.60
2023-09-08T12:57:36.321Z,47.33
2023-09-08T13:02:38.938Z,47.58
2023-09-08T13:07:41.482Z,48.11
2023-09-08T13:12:47.700Z,48.03
2023-09-08T13:17:49.685Z,47.87
2023-09-08T13:22:51.649Z,48.01
2023-09-08T13:27:53.543Z,47.94
2023-09-08T13:32:56.765Z,47.94
2023-09-08T13:38:00.757Z,48.37
2023-09-08T13:43:03.342Z,48.60
2023-09-08T13:48:07.477Z,48.82
2023-09-08T13:53:10.044Z,48.59
2023-09-08T13:58:12.789Z,48.91
2023-09-08T14:03:19.691Z,49.36
2023-09-08T14:13:29.227Z,50.53
2023-09-08T14:18:31.425Z,50.43
2023-09-08T14:23:35.180Z,50.63
2023-09-08T14:28:37.325Z,51.37
2023-09-08T14:33:39.151Z,51.57
2023-09-08T14:38:41.501Z,51.85
2023-09-08T14:43:43.254Z,52.08
2023-09-08T14:48:45.288Z,52.48
2023-09-08T14:53:47.862Z,52.76
2023-09-08T14:58:50.438Z,52.57
2023-09-08T15:03:52.389Z,52.23
2023-09-08T15:08:54.853Z,52.97
2023-09-08T15:13:56.972Z,53.02
2023-09-08T15:18:58.960Z,52.59
2023-09-08T15:24:02.472Z,52.37
2023-09-08T15:29:05.989Z,52.22
2023-09-08T15:34:08.585Z,52.77
2023-09-08T15:39:10.507Z,53.32
2023-09-08T15:44:12.345Z,54.14
2023-09-08T15:49:14.269Z,54.85
2023-09-08T15:54:17.036Z,55.70
2023-09-08T15:59:19.249Z,56.43
2023-09-08T16:04:21.735Z,57.01
2023-09-08T16:09:23.881Z,57.53
2023-09-08T16:14:26.392Z,57.99
2023-09-08T16:19:29.477Z,58.58
2023-09-08T16:24:32.835Z,58.83
2023-09-08T16:29:35.178Z,59.10
2023-09-08T16:34:37.322Z,59.77
2023-09-08T16:39:39.981Z,60.39
2023-09-08T16:44:44.297Z,60.92
2023-09-08T16:49:47.759Z,61.66
2023-09-08T16:54:50.907Z,62.49
2023-09-08T16:59:53.439Z,63.30
2023-09-08T17:04:55.680Z,64.09
2023-09-08T17:09:58.074Z,64.74
2023-09-08T17:15:00.172Z,65.52
2023-09-08T17:20:03.413Z,66.33
2023-09-08T17:25:07.389Z,67.27
2023-09-08T17:30:11.258Z,67.96
2023-09-08T17:35:13.190Z,68.90
2023-09-08T17:40:15.068Z,69.44
2023-09-08T17:45:17.459Z,70.10
2023-09-08T17:50:19.846Z,70.65
2023-09-08T17:55:21.730Z,71.49
2023-09-08T18:00:23.611Z,72.32
2023-09-08T18:05:26.849Z,73.40
2023-09-08T18:10:29.012Z,74.33
2023-09-08T18:15:31.318Z,75.23
2023-09-08T18:20:36.436Z,76.34
2023-09-08T18:25:38.545Z,77.40
2023-09-08T18:30:45.311Z,78.44
2023-09-08T18:35:47.287Z,79.44
2023-09-08T18:40:49.173Z,79.95
2023-09-08T18:45:51.967Z,80.56
2023-09-08T18:50:54.455Z,81.68
2023-09-08T18:55:56.846Z,82.50
2023-09-08T19:01:03.270Z,83.27
2023-09-08T19:06:05.718Z,83.86
2023-09-08T19:11:07.879Z,84.60
2023-09-08T19:16:10.426Z,85.35
2023-09-08T19:21:14.015Z,86.04
2023-09-08T19:26:16.924Z,87.11
2023-09-08T19:31:19.343Z,88.01
2023-09-08T19:36:21.589Z,89.06
2023-09-08T19:41:25.071Z,89.56
2023-09-08T19:46:28.141Z,90.39
2023-09-08T19:51:31.323Z,90.88
2023-09-08T19:56:34.012Z,92.01
2023-09-08T20:01:36.897Z,92.68
2023-09-08T20:06:39.612Z,93.30
2023-09-08T20:11:43.357Z,94.25
2023-09-08T20:16:45.558Z,94.08
2023-09-08T20:21:47.706Z,94.47
2023-09-08T20:26:50.503Z,95.20
2023-09-08T20:31:56.002Z,95.47
2023-09-08T20:36:58.350Z,96.37
2023-09-08T20:42:00.845Z,96.79
2023-09-08T20:47:03.237Z,97.05
2023-09-08T20:52:05.937Z,97.42
2023-09-08T20:57:07.814Z,98.59
2023-09-08T21:02:09.901Z,98.71
2023-09-08T21:07:11.764Z,99.32
2023-09-08T21:12:14.173Z,99.90
2023-09-08T21:17:16.139Z,100.00
2023-09-08T21:22:18.012Z,100.00
2023-09-08T21:27:19.885Z,100.00
2023-09-08T21:32:24.534Z,100.00
2023-09-08T21:37:26.302Z,100.00
2023-09-08T21:42:28.184Z,100.00
2023-09-08T21:47:31.201Z,100.00
2023-09-08T21:52:38.455Z,100.00
2023-09-08T21:57:41.704Z,100.00
2023-09-08T22:02:44.150Z,100.00
2023-09-08T22:07:46.270Z,100.00
2023-09-08T22:12:48.741Z,100.00
2023-09-08T22:17:51.177Z,100.00
2023-09-08T22:22:53.640Z,100.00
2023-09-08T22:27:59.000Z,100.00
2023-09-08T22:33:01.488Z,100.00
2023-09-08T22:38:04.094Z,100.00
2023-09-08T22:43:05.961Z,100.00
2023-09-08T22:48:07.787Z,100.00
2023-09-08T22:53:11.045Z,100.00
2023-09-08T22:58:16.161Z,100.00
2023-09-08T23:03:18.271Z,100.00
2023-09-08T23:08:20.775Z,100.00
2023-09-08T23:13:22.960Z,100.00
2023-09-08T23:18:25.006Z,100.00
2023-09-08T23:23:27.018Z,100.00
2023-09-08T23:28:29.001Z,100.00
2023-09-08T23:33:33.112Z,100.00
2023-09-08T23:38:35.211Z,100.00
2023-09-08T23:43:37.609Z,100.00
2023-09-08T23:48:39.991Z,100.00
2023-09-08T23:53:41.863Z,100.00
2023-09-08T23:58:43.638Z,100.00
